createdAt,value
2018-06-03T00:01:18.921Z,57.70
2018-06-03T00:03:46.590Z,58.17
2018-06-03T00:06:14.199Z,58.21
2018-06-03T00:08:41.846Z,57.82
2018-06-03T00:11:09.450Z,58.17
2018-06-03T00:13:37.206Z,58.36
2018-06-03T00:16:04.958Z,58.13
2018-06-03T00:18:32.632Z,58.79
2018-06-03T00:21:11.928Z,58.18
2018-06-03T00:23:39.579Z,58.46
2018-06-03T00:26:07.234Z,58.15
2018-06-03T00:28:34.878Z,58.12
2018-06-03T00:31:02.500Z,57.89
2018-06-03T00:33:30.147Z,57.68
2018-06-03T00:36:09.714Z,57.54
2018-06-03T00:38:37.373Z,57.22
2018-06-03T00:41:04.986Z,57.25
2018-06-03T00:43:32.650Z,57.67
2018-06-03T00:46:00.271Z,57.32
2018-06-03T00:48:27.921Z,57.21
2018-06-03T00:50:55.532Z,57.24
2018-06-03T00:53:23.186Z,57.25
2018-06-03T00:55:50.848Z,57.43
2018-06-03T00:58:50.890Z,57.78
2018-06-03T01:01:19.819Z,57.70
2018-06-03T01:03:48.763Z,58.02
2018-06-03T01:06:17.768Z,57.48
2018-06-03T01:08:46.743Z,57.15
2018-06-03T01:11:15.740Z,57.53
2018-06-03T01:13:44.695Z,57.55
2018-06-03T01:16:13.671Z,57.61
2018-06-03T01:18:42.607Z,57.45
2018-06-03T01:21:11.599Z,57.72
2018-06-03T01:23:40.561Z,57.61
2018-06-03T01:26:09.558Z,58.10
2018-06-03T01:28:38.563Z,58.01
2018-06-03T01:31:07.681Z,57.95
2018-06-03T01:33:36.618Z,58.31
2018-06-03T01:36:05.610Z,58.61
2018-06-03T01:38:34.590Z,59.08
2018-06-03T01:41:03.610Z,59.25
2018-06-03T01:43:32.667Z,59.35
2018-06-03T01:46:01.662Z,59.01
2018-06-03T01:48:30.626Z,59.20
2018-06-03T01:50:59.632Z,59.66
2018-06-03T01:53:28.594Z,59.61
2018-06-03T01:55:57.622Z,60.38
2018-06-03T01:58:26.591Z,60.25
2018-06-03T02:00:55.593Z,60.34
2018-06-03T02:03:24.550Z,60.31
2018-06-03T02:05:53.571Z,61.26
2018-06-03T02:08:22.570Z,61.58
2018-06-03T02:10:51.572Z,62.00
2018-06-03T02:13:20.531Z,62.26
2018-06-03T02:15:49.479Z,62.07
2018-06-03T02:18:18.371Z,62.37
2018-06-03T02:20:47.321Z,62.10
2018-06-03T02:23:16.303Z,61.92
2018-06-03T02:25:45.283Z,62.50
2018-06-03T02:28:14.223Z,61.95
2018-06-03T02:30:43.217Z,62.06
2018-06-03T02:33:12.157Z,62.08
2018-06-03T02:35:41.130Z,63.01
2018-06-03T02:38:10.113Z,62.55
2018-06-03T02:40:39.101Z,63.94
2018-06-03T02:43:08.135Z,64.12
2018-06-03T02:45:37.149Z,64.36
2018-06-03T02:48:06.159Z,63.97
2018-06-03T02:50:35.182Z,63.77
2018-06-03T02:53:04.148Z,65.72
2018-06-03T02:55:33.140Z,65.22
2018-06-03T02:58:02.150Z,64.15
2018-06-03T03:00:31.129Z,64.30
2018-06-03T03:03:00.124Z,63.63
2018-06-03T03:05:29.055Z,62.89
2018-06-03T03:07:58.052Z,62.22
2018-06-03T03:10:26.996Z,61.90
2018-06-03T03:12:56.006Z,62.92
2018-06-03T03:15:24.992Z,63.64
2018-06-03T03:17:53.982Z,63.37
2018-06-03T03:20:22.933Z,64.16
2018-06-03T03:22:51.911Z,63.55
2018-06-03T03:25:20.855Z,63.38
2018-06-03T03:27:49.862Z,62.96
2018-06-03T03:30:18.775Z,62.71
2018-06-03T03:32:47.722Z,62.76
2018-06-03T03:35:16.622Z,62.07
2018-06-03T03:37:45.567Z,62.90
2018-06-03T03:40:14.470Z,64.03
2018-06-03T03:42:43.431Z,64.66
2018-06-03T03:45:12.359Z,63.06
2018-06-03T03:47:41.315Z,62.27
2018-06-03T03:50:10.231Z,63.96
2018-06-03T03:52:39.231Z,63.95
2018-06-03T03:55:08.146Z,63.24
2018-06-03T03:57:37.100Z,63.03
2018-06-03T04:00:06.046Z,62.95
2018-06-03T04:02:35.019Z,63.01
2018-06-03T04:05:03.931Z,62.24
2018-06-03T04:07:32.883Z,62.09
2018-06-03T04:10:01.791Z,63.07
2018-06-03T04:12:30.759Z,63.07
2018-06-03T04:14:59.704Z,62.94
2018-06-03T04:17:28.669Z,62.70
2018-06-03T04:19:57.598Z,61.62
2018-06-03T04:22:26.550Z,61.40
2018-06-03T04:24:55.503Z,62.25
2018-06-03T04:27:24.473Z,62.81
2018-06-03T04:29:53.442Z,61.30
2018-06-03T04:32:22.385Z,60.54
2018-06-03T04:34:51.275Z,60.07
2018-06-03T04:37:20.262Z,59.31
2018-06-03T04:39:49.163Z,58.50
2018-06-03T04:42:18.115Z,58.09
2018-06-03T04:44:47.014Z,59.21
2018-06-03T04:47:15.980Z,59.53
2018-06-03T04:49:44.907Z,59.55
2018-06-03T04:52:13.855Z,57.70
2018-06-03T04:54:42.756Z,56.28
2018-06-03T04:57:11.722Z,58.06
2018-06-03T04:59:40.870Z,59.30
2018-06-03T05:02:09.966Z,58.86
2018-06-03T05:04:38.897Z,59.86
2018-06-03T05:07:07.838Z,57.74
2018-06-03T05:09:36.766Z,56.50
2018-06-03T05:12:05.760Z,56.79
2018-06-03T05:14:34.674Z,54.73
2018-06-03T05:17:03.619Z,54.73
2018-06-03T05:19:32.550Z,54.76
2018-06-03T05:22:01.512Z,53.57
2018-06-03T05:24:30.414Z,54.33
2018-06-03T05:26:59.393Z,53.99
2018-06-03T05:29:28.335Z,52.91
2018-06-03T05:31:57.299Z,52.94
2018-06-03T05:34:26.238Z,52.58
2018-06-03T05:36:55.234Z,53.38
2018-06-03T05:39:24.229Z,53.72
2018-06-03T05:41:53.154Z,53.93
2018-06-03T05:44:22.142Z,52.47
2018-06-03T05:46:51.090Z,53.00
2018-06-03T05:49:20.090Z,52.32
2018-06-03T05:51:49.036Z,53.49
2018-06-03T05:54:18.006Z,52.21
2018-06-03T05:56:46.941Z,51.91
2018-06-03T05:59:15.934Z,52.08
2018-06-03T06:01:44.882Z,51.96
2018-06-03T06:04:13.846Z,50.44
2018-06-03T06:06:42.774Z,48.80
2018-06-03T06:09:11.747Z,48.46
2018-06-03T06:11:40.700Z,47.05
2018-06-03T06:14:09.701Z,47.57
2018-06-03T06:16:38.639Z,47.33
2018-06-03T06:19:07.629Z,46.22
2018-06-03T06:21:36.577Z,46.17
2018-06-03T06:24:05.568Z,45.26
2018-06-03T06:26:34.502Z,46.70
2018-06-03T06:29:03.494Z,46.69
2018-06-03T06:31:32.413Z,46.44
2018-06-03T06:34:01.359Z,45.89
2018-06-03T06:36:30.368Z,45.93
2018-06-03T06:38:59.374Z,46.44
2018-06-03T06:41:28.344Z,47.84
2018-06-03T06:43:57.344Z,47.11
2018-06-03T06:46:26.320Z,45.29
2018-06-03T06:48:55.340Z,45.88
2018-06-03T06:51:24.330Z,46.58
2018-06-03T06:53:53.329Z,46.52
2018-06-03T06:56:22.350Z,46.35
2018-06-03T06:58:51.364Z,47.27
2018-06-03T07:01:20.351Z,47.18
2018-06-03T07:03:49.353Z,45.62
2018-06-03T07:06:18.337Z,46.23
2018-06-03T07:08:47.320Z,44.70
2018-06-03T07:11:16.246Z,44.94
2018-06-03T07:13:45.241Z,44.23
2018-06-03T07:16:14.183Z,45.57
2018-06-03T07:18:43.155Z,44.71
2018-06-03T07:21:12.126Z,46.04
2018-06-03T07:23:41.140Z,45.69
2018-06-03T07:26:10.098Z,46.37
2018-06-03T07:28:39.131Z,45.12
2018-06-03T07:31:08.046Z,44.66
2018-06-03T07:33:36.997Z,45.59
2018-06-03T07:36:05.923Z,45.92
2018-06-03T07:38:34.908Z,46.60
2018-06-03T07:41:03.826Z,45.05
2018-06-03T07:43:32.818Z,45.61
2018-06-03T07:46:01.886Z,45.23
2018-06-03T07:48:31.059Z,43.36
2018-06-03T07:50:59.951Z,44.12
2018-06-03T07:53:28.910Z,45.66
2018-06-03T07:55:57.831Z,45.04
2018-06-03T07:58:26.798Z,44.15
2018-06-03T08:00:55.734Z,43.54
2018-06-03T08:03:24.683Z,42.78
2018-06-03T08:05:53.594Z,42.09
2018-06-03T08:08:22.544Z,42.81
2018-06-03T08:10:51.487Z,44.22
2018-06-03T08:13:20.434Z,44.79
2018-06-03T08:15:49.352Z,44.52
2018-06-03T08:18:18.335Z,43.61
2018-06-03T08:20:47.223Z,44.22
2018-06-03T08:23:16.183Z,42.85
2018-06-03T08:25:45.127Z,41.20
2018-06-03T08:28:14.122Z,41.86
2018-06-03T08:30:43.041Z,41.67
2018-06-03T08:33:11.975Z,40.61
2018-06-03T08:35:40.974Z,41.44
2018-06-03T08:38:09.906Z,41.31
2018-06-03T08:40:38.950Z,40.10
2018-06-03T08:43:07.890Z,38.71
2018-06-03T08:45:36.847Z,38.46
2018-06-03T08:48:05.771Z,38.22
2018-06-03T08:50:34.715Z,38.98
2018-06-03T08:53:03.652Z,39.14
2018-06-03T08:55:32.619Z,38.60
2018-06-03T08:58:01.600Z,38.73
2018-06-03T09:00:30.587Z,38.71
2018-06-03T09:02:59.499Z,37.36
2018-06-03T09:05:28.793Z,36.09
2018-06-03T09:07:57.699Z,36.29
2018-06-03T09:10:26.626Z,37.61
2018-06-03T09:12:55.515Z,36.48
2018-06-03T09:15:24.458Z,36.19
2018-06-03T09:17:53.355Z,36.22
2018-06-03T09:20:22.299Z,35.27
2018-06-03T09:22:51.198Z,34.11
2018-06-03T09:25:20.156Z,34.15
2018-06-03T09:27:49.068Z,33.31
2018-06-03T09:30:18.038Z,33.65
2018-06-03T09:32:46.949Z,33.59
2018-06-03T09:35:15.912Z,32.20
2018-06-03T09:37:45.147Z,32.49
2018-06-03T09:40:14.123Z,31.23
2018-06-03T09:42:43.047Z,30.24
2018-06-03T09:45:11.988Z,30.81
2018-06-03T09:47:40.903Z,32.86
2018-06-03T09:50:09.962Z,34.36
2018-06-03T09:52:38.910Z,34.74
2018-06-03T09:55:07.877Z,32.56
2018-06-03T09:57:36.938Z,32.80
2018-06-03T10:00:06.014Z,31.69
2018-06-03T10:02:34.940Z,31.93
2018-06-03T10:05:03.946Z,31.07
2018-06-03T10:07:32.949Z,34.12
2018-06-03T10:10:01.887Z,32.64
2018-06-03T10:12:30.791Z,33.25
2018-06-03T10:14:59.771Z,31.62
2018-06-03T10:17:28.859Z,30.75
2018-06-03T10:19:57.895Z,29.95
2018-06-03T10:22:26.798Z,29.46
2018-06-03T10:24:55.790Z,30.03
2018-06-03T10:27:25.251Z,30.39
2018-06-03T10:29:54.458Z,29.60
2018-06-03T10:32:23.796Z,28.71
2018-06-03T10:34:52.821Z,31.31
2018-06-03T10:37:22.509Z,30.03
2018-06-03T10:39:52.272Z,29.60
2018-06-03T10:42:21.993Z,29.01
2018-06-03T10:44:51.772Z,28.36
2018-06-03T10:47:21.505Z,29.62
2018-06-03T10:49:51.331Z,29.09
2018-06-03T10:52:21.056Z,29.76
2018-06-03T10:54:50.893Z,31.15
2018-06-03T10:57:21.227Z,31.96
2018-06-03T10:59:51.036Z,31.87
2018-06-03T11:02:20.763Z,31.93
2018-06-03T11:04:50.668Z,32.24
2018-06-03T11:07:20.251Z,31.33
2018-06-03T11:09:50.469Z,31.47
2018-06-03T11:12:20.112Z,31.31
2018-06-03T11:14:49.797Z,30.28
2018-06-03T11:17:19.789Z,29.74
2018-06-03T11:19:49.525Z,28.36
2018-06-03T11:22:19.264Z,29.61
2018-06-03T11:24:48.965Z,29.24
2018-06-03T11:27:18.699Z,29.55
2018-06-03T11:29:48.470Z,29.08
2018-06-03T11:32:18.224Z,30.54
2018-06-03T11:34:47.965Z,28.64
2018-06-03T11:37:17.643Z,27.50
2018-06-03T11:39:47.401Z,27.83
2018-06-03T11:42:17.108Z,27.40
2018-06-03T11:44:46.206Z,28.29
2018-06-03T11:47:15.169Z,29.39
2018-06-03T11:49:44.155Z,29.11
2018-06-03T11:52:13.073Z,30.67
2018-06-03T11:54:42.047Z,32.40
2018-06-03T11:57:11.033Z,31.96
2018-06-03T11:59:42.977Z,30.15
2018-06-03T12:02:13.146Z,30.30
2018-06-03T12:04:42.126Z,31.41
2018-06-03T12:07:11.102Z,31.65
2018-06-03T12:09:40.059Z,32.14
2018-06-03T12:12:09.228Z,32.06
2018-06-03T12:14:38.238Z,28.83
2018-06-03T12:17:07.234Z,29.29
2018-06-03T12:19:36.190Z,28.18
2018-06-03T12:22:05.186Z,30.28
2018-06-03T12:24:34.139Z,30.91
2018-06-03T12:27:03.106Z,31.29
2018-06-03T12:29:32.044Z,29.21
2018-06-03T12:32:01.041Z,27.25
2018-06-03T12:34:29.984Z,27.06
2018-06-03T12:36:58.966Z,26.57
2018-06-03T12:39:27.991Z,25.44
2018-06-03T12:41:56.997Z,25.70
2018-06-03T12:44:25.948Z,24.60
2018-06-03T12:46:54.955Z,25.96
2018-06-03T12:49:23.875Z,25.19
2018-06-03T12:51:52.866Z,25.77
2018-06-03T12:54:21.901Z,27.79
2018-06-03T12:56:50.887Z,30.12
2018-06-03T12:59:19.826Z,28.82
2018-06-03T13:01:48.810Z,29.80
2018-06-03T13:04:17.771Z,31.25
2018-06-03T13:06:46.777Z,28.99
2018-06-03T13:09:15.737Z,29.93
2018-06-03T13:11:44.740Z,31.23
2018-06-03T13:14:13.734Z,30.33
2018-06-03T13:16:42.763Z,30.88
2018-06-03T13:19:11.702Z,29.47
2018-06-03T13:21:40.937Z,30.60
2018-06-03T13:24:09.877Z,30.39
2018-06-03T13:26:38.876Z,30.57
2018-06-03T13:29:07.868Z,30.43
2018-06-03T13:31:36.858Z,30.16
2018-06-03T13:34:06.026Z,29.83
2018-06-03T13:36:35.006Z,30.41
2018-06-03T13:39:04.206Z,28.46
2018-06-03T13:41:33.194Z,28.32
2018-06-03T13:44:02.148Z,29.46
2018-06-03T13:46:31.135Z,30.56
2018-06-03T13:49:00.079Z,28.58
2018-06-03T13:51:29.085Z,26.28
2018-06-03T13:53:58.056Z,27.97
2018-06-03T13:56:27.039Z,27.13
2018-06-03T13:58:56.005Z,27.18
2018-06-03T14:01:25.024Z,27.22
2018-06-03T14:03:53.975Z,25.36
2018-06-03T14:06:22.986Z,26.25
2018-06-03T14:08:51.953Z,27.40
2018-06-03T14:11:20.938Z,28.42
2018-06-03T14:13:49.877Z,27.04
2018-06-03T14:16:18.837Z,27.37
2018-06-03T14:18:47.798Z,27.37
2018-06-03T14:21:16.802Z,28.31
2018-06-03T14:23:45.754Z,28.51
2018-06-03T14:26:14.775Z,27.36
2018-06-03T14:28:43.704Z,25.94
2018-06-03T14:31:12.654Z,25.34
2018-06-03T14:33:41.578Z,24.44
2018-06-03T14:36:10.521Z,25.57
2018-06-03T14:38:39.589Z,25.64
2018-06-03T14:41:08.551Z,26.16
2018-06-03T14:43:37.595Z,25.57
2018-06-03T14:46:06.541Z,25.44
2018-06-03T14:48:35.659Z,26.78
2018-06-03T14:51:04.674Z,26.10
2018-06-03T14:53:33.566Z,26.83
2018-06-03T14:56:02.531Z,28.13
2018-06-03T14:58:31.385Z,29.32
2018-06-03T15:01:00.382Z,27.76
2018-06-03T15:03:29.354Z,28.70
2018-06-03T15:05:58.255Z,28.67
2018-06-03T15:08:27.208Z,28.07
2018-06-03T15:10:56.140Z,28.04
2018-06-03T15:13:25.108Z,27.00
2018-06-03T15:15:54.019Z,25.77
2018-06-03T15:18:22.991Z,24.77
2018-06-03T15:20:51.928Z,23.99
2018-06-03T15:23:20.912Z,22.46
2018-06-03T15:25:49.848Z,23.06
2018-06-03T15:28:18.836Z,21.73
2018-06-03T15:30:47.759Z,22.81
2018-06-03T15:33:16.736Z,22.79
2018-06-03T15:35:45.669Z,23.07
2018-06-03T15:38:14.656Z,23.08
2018-06-03T15:40:43.576Z,23.39
2018-06-03T15:43:12.571Z,24.60
2018-06-03T15:45:41.476Z,25.72
2018-06-03T15:48:10.459Z,27.24
2018-06-03T15:50:39.376Z,27.22
2018-06-03T15:53:08.367Z,26.32
2018-06-03T15:55:37.311Z,26.20
2018-06-03T15:58:06.268Z,27.08
2018-06-03T16:00:35.212Z,26.97
2018-06-03T16:03:04.382Z,27.04
2018-06-03T16:05:33.330Z,26.05
2018-06-03T16:08:02.338Z,25.22
2018-06-03T16:10:31.234Z,25.02
2018-06-03T16:13:00.310Z,25.45
2018-06-03T16:15:29.359Z,24.14
2018-06-03T16:17:58.335Z,23.99
2018-06-03T16:20:27.266Z,23.85
2018-06-03T16:22:56.259Z,23.93
2018-06-03T16:25:25.195Z,22.17
2018-06-03T16:27:54.170Z,22.77
2018-06-03T16:30:23.174Z,21.12
2018-06-03T16:32:52.126Z,21.83
2018-06-03T16:35:21.086Z,22.78
2018-06-03T16:37:50.087Z,22.65
2018-06-03T16:40:19.102Z,22.16
2018-06-03T16:42:48.102Z,21.97
2018-06-03T16:45:17.101Z,21.74
2018-06-03T16:47:46.117Z,21.30
2018-06-03T16:50:15.109Z,22.46
2018-06-03T16:52:44.126Z,21.48
2018-06-03T16:55:13.094Z,22.14
2018-06-03T16:57:42.082Z,22.02
2018-06-03T17:00:11.047Z,22.62
2018-06-03T17:02:40.068Z,22.91
2018-06-03T17:05:09.028Z,22.39
2018-06-03T17:07:38.053Z,21.41
2018-06-03T17:10:07.015Z,21.29
2018-06-03T17:12:36.088Z,21.12
2018-06-03T17:15:05.065Z,21.59
2018-06-03T17:17:34.067Z,21.42
2018-06-03T17:20:03.004Z,21.04
2018-06-03T17:22:31.983Z,20.83
2018-06-03T17:25:00.961Z,21.30
2018-06-03T17:27:29.947Z,24.80
2018-06-03T17:29:58.911Z,23.09
2018-06-03T17:32:27.890Z,24.42
2018-06-03T17:34:56.828Z,24.34
2018-06-03T17:37:25.781Z,26.17
2018-06-03T17:39:54.723Z,24.82
2018-06-03T17:42:23.679Z,25.37
2018-06-03T17:44:52.597Z,26.66
2018-06-03T17:47:21.549Z,26.60
2018-06-03T17:49:50.476Z,28.18
2018-06-03T17:52:19.426Z,26.26
2018-06-03T17:54:48.367Z,26.04
2018-06-03T17:57:17.336Z,28.17
2018-06-03T17:59:46.263Z,28.00
2018-06-03T18:02:15.215Z,29.36
2018-06-03T18:04:44.164Z,28.26
2018-06-03T18:07:13.086Z,29.83
2018-06-03T18:09:42.007Z,28.74
2018-06-03T18:12:10.932Z,28.92
2018-06-03T18:14:39.905Z,29.17
2018-06-03T18:17:08.837Z,29.69
2018-06-03T18:19:37.838Z,29.30
2018-06-03T18:22:06.766Z,29.90
2018-06-03T18:24:35.719Z,29.19
2018-06-03T18:27:04.650Z,30.33
2018-06-03T18:29:33.675Z,29.62
2018-06-03T18:32:02.619Z,31.42
2018-06-03T18:34:31.618Z,31.24
2018-06-03T18:37:00.636Z,32.85
2018-06-03T18:39:29.623Z,32.52
2018-06-03T18:41:58.584Z,31.86
2018-06-03T18:44:27.587Z,31.98
2018-06-03T18:46:56.538Z,33.44
2018-06-03T18:49:25.655Z,34.24
2018-06-03T18:51:54.783Z,36.18
2018-06-03T18:54:23.747Z,35.46
2018-06-03T18:56:52.754Z,36.35
2018-06-03T18:59:21.822Z,35.36
2018-06-03T19:01:50.743Z,34.90
2018-06-03T19:04:20.176Z,35.59
2018-06-03T19:06:49.614Z,35.78
2018-06-03T19:09:18.630Z,35.41
2018-06-03T19:11:47.573Z,35.99
2018-06-03T19:14:16.551Z,37.12
2018-06-03T19:16:45.543Z,37.65
2018-06-03T19:19:14.527Z,36.55
2018-06-03T19:21:43.458Z,36.19
2018-06-03T19:24:12.465Z,37.16
2018-06-03T19:26:41.434Z,38.13
2018-06-03T19:29:10.411Z,37.53
2018-06-03T19:31:39.329Z,37.40
2018-06-03T19:34:08.274Z,37.31
2018-06-03T19:36:37.171Z,36.56
2018-06-03T19:39:08.439Z,36.31
2018-06-03T19:41:37.854Z,37.13
2018-06-03T19:44:06.943Z,37.24
2018-06-03T19:46:35.835Z,37.34
2018-06-03T19:49:04.824Z,37.51
2018-06-03T19:51:33.773Z,38.12
2018-06-03T19:54:02.793Z,37.48
2018-06-03T19:56:31.712Z,37.90
2018-06-03T19:59:00.716Z,38.27
2018-06-03T20:01:29.723Z,38.07
2018-06-03T20:03:58.680Z,37.67
2018-06-03T20:06:27.592Z,38.23
2018-06-03T20:08:56.550Z,38.29
2018-06-03T20:11:25.438Z,38.74
2018-06-03T20:13:54.392Z,39.20
2018-06-03T20:16:23.314Z,39.28
2018-06-03T20:18:52.253Z,38.79
2018-06-03T20:21:21.191Z,39.18
2018-06-03T20:23:50.133Z,39.55
2018-06-03T20:26:19.053Z,40.17
2018-06-03T20:28:48.085Z,40.99
2018-06-03T20:31:17.033Z,40.59
2018-06-03T20:33:46.002Z,40.97
2018-06-03T20:36:14.943Z,41.20
2018-06-03T20:38:43.944Z,41.23
2018-06-03T20:41:12.887Z,40.38
2018-06-03T20:43:41.887Z,39.97
2018-06-03T20:46:10.833Z,40.78
2018-06-03T20:48:39.912Z,40.54
2018-06-03T20:51:08.846Z,40.67
2018-06-03T20:53:37.861Z,42.00
2018-06-03T20:56:06.808Z,42.44
2018-06-03T20:58:35.817Z,42.14
2018-06-03T21:01:04.867Z,43.02
2018-06-03T21:03:33.804Z,42.05
2018-06-03T21:06:02.790Z,42.42
2018-06-03T21:08:31.800Z,42.38
2018-06-03T21:11:00.996Z,41.67
2018-06-03T21:13:30.007Z,41.53
2018-06-03T21:15:59.010Z,41.34
2018-06-03T21:18:28.019Z,41.55
2018-06-03T21:20:57.004Z,40.90
2018-06-03T21:23:25.957Z,41.35
2018-06-03T21:25:54.937Z,42.18
2018-06-03T21:28:23.880Z,42.28
2018-06-03T21:30:52.874Z,44.62
2018-06-03T21:33:21.803Z,45.33
2018-06-03T21:35:50.798Z,45.02
2018-06-03T21:38:19.754Z,45.15
2018-06-03T21:40:48.716Z,44.48
2018-06-03T21:43:17.667Z,45.37
2018-06-03T21:45:46.755Z,44.27
2018-06-03T21:48:15.691Z,44.99
2018-06-03T21:50:44.682Z,46.09
2018-06-03T21:53:13.823Z,46.10
2018-06-03T21:55:42.810Z,46.91
2018-06-03T21:58:11.757Z,45.85
2018-06-03T22:00:40.760Z,47.39
2018-06-03T22:03:09.694Z,46.34
2018-06-03T22:05:38.678Z,45.71
2018-06-03T22:08:07.614Z,45.56
2018-06-03T22:10:36.581Z,47.62
2018-06-03T22:13:05.534Z,47.58
2018-06-03T22:15:34.519Z,47.68
2018-06-03T22:18:03.489Z,48.26
2018-06-03T22:20:32.574Z,47.52
2018-06-03T22:23:01.559Z,47.24
2018-06-03T22:25:30.553Z,47.32
2018-06-03T22:27:59.522Z,46.88
2018-06-03T22:30:28.481Z,47.29
2018-06-03T22:32:57.397Z,47.42
2018-06-03T22:35:26.534Z,47.13
2018-06-03T22:37:55.414Z,47.70
2018-06-03T22:40:24.367Z,47.76
2018-06-03T22:42:53.339Z,49.17
2018-06-03T22:45:22.291Z,48.44
2018-06-03T22:47:51.177Z,49.31
2018-06-03T22:50:20.138Z,50.24
2018-06-03T22:52:49.035Z,50.07
2018-06-03T22:55:18.003Z,49.06
2018-06-03T22:57:49.166Z,49.03
2018-06-03T23:00:34.580Z,48.45
2018-06-03T23:03:08.759Z,48.65
2018-06-03T23:05:37.704Z,48.57
2018-06-03T23:08:06.591Z,49.11
2018-06-03T23:10:35.551Z,48.79
2018-06-03T23:13:04.455Z,49.07
2018-06-03T23:15:33.406Z,49.18
2018-06-03T23:18:02.294Z,48.34
2018-06-03T23:20:31.252Z,49.71
2018-06-03T23:23:00.164Z,49.52
2018-06-03T23:25:29.176Z,49.85
2018-06-03T23:27:58.140Z,49.44
2018-06-03T23:30:27.143Z,49.63
2018-06-03T23:32:56.085Z,50.39
2018-06-03T23:35:25.055Z,50.16
2018-06-03T23:37:54.018Z,49.93
2018-06-03T23:40:22.985Z,49.91
2018-06-03T23:42:51.913Z,50.44
2018-06-03T23:45:20.909Z,50.62
2018-06-03T23:47:49.862Z,50.64
2018-06-03T23:50:18.842Z,50.70
2018-06-03T23:52:47.803Z,50.77
2018-06-03T23:55:16.796Z,50.14
2018-06-03T23:57:45.779Z,50.25
